Time;durP1;ratioP1;P1;durP2;ratioP2;P2;SDS_P1;SDS_P2;PMS_P1;PMS_P2;Temp;Humidity;BMP_temperature;BMP_pressure;BME280_temperature;BME280_humidity;BME280_pressure;Samples;Min_cycle;Max_cycle;Signal;HPM_P1;HPM_P2
2023/07/17 00:02:26;;;;;;;65.70;43.65;;;;;;;;;;5043212;28;20056;-62
2023/07/17 00:04:52;;;;;;;68.07;45.13;;;;;;;;;;5043265;28;20420;-63
2023/07/17 00:07:19;;;;;;;64.28;42.65;;;;;;;;;;5041439;28;20247;-68
2023/07/17 00:09:46;;;;;;;62.15;43.45;;;;;;;;;;5033217;28;20064;-67
2023/07/17 00:12:13;;;;;;;66.65;41.70;;;;;;;;;;5026146;28;20174;-64
2023/07/17 00:14:39;;;;;;;59.08;40.60;;;;;;;;;;5041880;28;20097;-63
2023/07/17 00:17:06;;;;;;;61.53;41.88;;;;;;;;;;5023305;28;20040;-62
2023/07/17 00:19:39;;;;;;;61.85;41.35;;;;;;;;;;5038494;28;20044;-62
2023/07/17 00:22:06;;;;;;;62.85;41.50;;;;;;;;;;5044174;28;20158;-62
2023/07/17 00:24:33;;;;;;;62.85;41.30;;;;;;;;;;5040616;28;21761;-64
2023/07/17 00:27:19;;;;;;;63.90;41.42;;;;;;;;;;5040580;28;20094;-63
2023/07/17 00:29:46;;;;;;;62.60;41.00;;;;;;;;;;5021750;28;20099;-63
2023/07/17 00:32:14;;;;;;;54.50;38.15;;;;;;;;;;5019433;28;20056;-63
2023/07/17 00:34:41;;;;;;;62.88;40.40;;;;;;;;;;5014250;28;20045;-62
2023/07/17 00:37:07;;;;;;;61.15;40.97;;;;;;;;;;5023490;28;22854;-63
2023/07/17 00:39:34;;;;;;;57.13;39.80;;;;;;;;;;5021020;28;20048;-66
2023/07/17 00:42:01;;;;;;;61.88;40.15;;;;;;;;;;5020440;28;21574;-62
2023/07/17 00:44:28;;;;;;;61.22;40.10;;;;;;;;;;5019203;28;20037;-63
2023/07/17 00:46:55;;;;;;;61.20;40.67;;;;;;;;;;5023276;28;20044;-62
2023/07/17 00:49:23;;;;;;;58.78;38.85;;;;;;;;;;5020757;28;20145;-62
2023/07/17 00:51:51;;;;;;;60.70;39.50;;;;;;;;;;5023281;28;20088;-63
2023/07/17 00:54:19;;;;;;;60.25;38.30;;;;;;;;;;5019815;28;20908;-60
2023/07/17 00:56:46;;;;;;;59.40;40.50;;;;;;;;;;5024681;28;20048;-62
2023/07/17 00:59:13;;;;;;;62.70;41.88;;;;;;;;;;5025142;28;20044;-62
2023/07/17 01:01:41;;;;;;;61.72;42.28;;;;;;;;;;5037807;28;20051;-63
2023/07/17 01:04:08;;;;;;;62.10;41.88;;;;;;;;;;5039001;28;20485;-61
2023/07/17 01:06:39;;;;;;;67.53;43.80;;;;;;;;;;5033303;28;20045;-62
2023/07/17 01:09:06;;;;;;;67.05;44.42;;;;;;;;;;5043060;28;20392;-62
2023/07/17 01:11:33;;;;;;;66.93;43.63;;;;;;;;;;5045100;28;20127;-64
2023/07/17 01:14:00;;;;;;;66.20;42.25;;;;;;;;;;5042751;28;20253;-62
2023/07/17 01:16:26;;;;;;;63.72;41.03;;;;;;;;;;5041087;28;20044;-62
2023/07/17 01:18:53;;;;;;;63.45;41.60;;;;;;;;;;5025068;28;20118;-66
2023/07/17 01:21:21;;;;;;;61.90;40.83;;;;;;;;;;5023890;28;20290;-61
2023/07/17 01:23:47;;;;;;;63.72;42.17;;;;;;;;;;5044715;28;20060;-60
2023/07/17 01:26:15;;;;;;;65.30;40.38;;;;;;;;;;5041406;28;20064;-63
2023/07/17 01:28:42;;;;;;;62.63;40.40;;;;;;;;;;5039543;28;20048;-61
2023/07/17 01:31:09;;;;;;;60.58;39.70;;;;;;;;;;5040133;28;20549;-62
2023/07/17 01:33:36;;;;;;;57.92;39.38;;;;;;;;;;5040060;28;20400;-62
2023/07/17 01:36:04;;;;;;;57.00;37.55;;;;;;;;;;5047016;28;20432;-65
2023/07/17 01:38:31;;;;;;;58.80;38.47;;;;;;;;;;5050854;28;20028;-64
2023/07/17 01:40:57;;;;;;;56.63;37.90;;;;;;;;;;5046915;28;20036;-63
2023/07/17 01:43:24;;;;;;;56.15;37.50;;;;;;;;;;5038031;28;20140;-64
2023/07/17 01:45:51;;;;;;;57.55;37.30;;;;;;;;;;5029375;28;20183;-64
2023/07/17 01:48:17;;;;;;;57.25;36.70;;;;;;;;;;5043243;28;20041;-63
2023/07/17 01:50:47;;;;;;;57.75;36.78;;;;;;;;;;5043961;28;20578;-65
2023/07/17 01:53:14;;;;;;;57.17;37.08;;;;;;;;;;5044590;28;20060;-65
2023/07/17 01:55:41;;;;;;;56.80;36.63;;;;;;;;;;5032469;28;20039;-65
2023/07/17 01:58:08;;;;;;;56.28;36.30;;;;;;;;;;5047219;28;20093;-66
2023/07/17 02:00:35;;;;;;;54.35;35.58;;;;;;;;;;5029040;28;20037;-65
2023/07/17 02:03:02;;;;;;;55.28;36.83;;;;;;;;;;5047172;28;20120;-65
2023/07/17 02:05:28;;;;;;;55.03;36.30;;;;;;;;;;5033817;28;20033;-65
2023/07/17 02:07:55;;;;;;;59.63;37.63;;;;;;;;;;5047642;28;20985;-64
2023/07/17 02:10:22;;;;;;;56.40;37.97;;;;;;;;;;5047732;28;20047;-66
2023/07/17 02:12:49;;;;;;;57.90;37.78;;;;;;;;;;5045712;28;20040;-63
2023/07/17 02:15:16;;;;;;;63.40;40.00;;;;;;;;;;5032503;28;20062;-64
2023/07/17 02:17:42;;;;;;;67.13;42.28;;;;;;;;;;5045392;28;20831;-64
2023/07/17 02:20:10;;;;;;;68.63;43.60;;;;;;;;;;5043352;28;20082;-64
2023/07/17 02:22:41;;;;;;;69.60;43.45;;;;;;;;;;5045478;28;20076;-64
2023/07/17 02:25:08;;;;;;;70.70;45.20;;;;;;;;;;5046591;28;20044;-65
2023/07/17 02:27:35;;;;;;;68.05;44.75;;;;;;;;;;5044316;28;20036;-65
2023/07/17 02:30:02;;;;;;;71.70;44.95;;;;;;;;;;5033922;28;20095;-66
2023/07/17 02:32:29;;;;;;;69.35;44.67;;;;;;;;;;5044702;28;20082;-64
2023/07/17 02:34:56;;;;;;;72.20;44.55;;;;;;;;;;5030948;28;20392;-65
2023/07/17 02:37:23;;;;;;;70.05;44.78;;;;;;;;;;5044116;28;20056;-63
2023/07/17 02:39:49;;;;;;;75.63;46.83;;;;;;;;;;5045472;28;20043;-65
2023/07/17 02:42:16;;;;;;;71.30;44.75;;;;;;;;;;5046986;28;20128;-64
2023/07/17 02:44:43;;;;;;;76.75;45.70;;;;;;;;;;5046812;28;21299;-65
2023/07/17 02:47:10;;;;;;;71.82;45.83;;;;;;;;;;5048757;28;20060;-67
2023/07/17 02:49:39;;;;;;;70.00;44.78;;;;;;;;;;5048056;28;20037;-63
2023/07/17 02:52:07;;;;;;;68.00;43.42;;;;;;;;;;5047454;28;20043;-64
2023/07/17 02:54:33;;;;;;;67.97;44.15;;;;;;;;;;5045285;28;20051;-64
2023/07/17 02:57:00;;;;;;;72.70;46.65;;;;;;;;;;5047167;28;20139;-63
2023/07/17 02:59:27;;;;;;;66.93;44.28;;;;;;;;;;5044636;28;20044;-63
2023/07/17 03:01:54;;;;;;;75.93;45.33;;;;;;;;;;5045925;28;20048;-64
2023/07/17 03:04:20;;;;;;;75.55;45.25;;;;;;;;;;5045341;28;20435;-66
2023/07/17 03:06:47;;;;;;;71.40;43.83;;;;;;;;;;5047432;28;20048;-66
2023/07/17 03:09:14;;;;;;;74.82;46.63;;;;;;;;;;5044406;28;20188;-64
2023/07/17 03:11:40;;;;;;;66.78;43.75;;;;;;;;;;5044931;28;20041;-66
2023/07/17 03:14:07;;;;;;;68.22;44.50;;;;;;;;;;5030308;28;20411;-65
2023/07/17 03:16:35;;;;;;;72.80;44.03;;;;;;;;;;5030776;28;20168;-64
2023/07/17 03:19:03;;;;;;;68.15;44.30;;;;;;;;;;5044166;28;20405;-63
2023/07/17 03:21:29;;;;;;;72.03;44.13;;;;;;;;;;5028758;28;20504;-64
2023/07/17 03:23:56;;;;;;;71.22;45.13;;;;;;;;;;5043461;28;20402;-64
2023/07/17 03:26:22;;;;;;;74.88;45.85;;;;;;;;;;5043537;28;20037;-63
2023/07/17 03:28:49;;;;;;;72.20;45.03;;;;;;;;;;5039429;28;20040;-62
2023/07/17 03:31:16;;;;;;;69.90;45.63;;;;;;;;;;5026641;28;20043;-63
2023/07/17 03:33:42;;;;;;;76.00;44.65;;;;;;;;;;5041680;28;20334;-63
2023/07/17 03:36:09;;;;;;;72.28;45.85;;;;;;;;;;5018687;28;20120;-61
2023/07/17 03:38:35;;;;;;;66.93;42.42;;;;;;;;;;5021033;28;20052;-64
2023/07/17 03:41:03;;;;;;;69.97;45.05;;;;;;;;;;5040870;28;20068;-61
2023/07/17 03:43:29;;;;;;;73.75;45.38;;;;;;;;;;5022641;28;20037;-62
2023/07/17 03:46:16;;;;;;;67.55;43.65;;;;;;;;;;5001913;28;20033;-62
2023/07/17 03:48:42;;;;;;;72.28;44.30;;;;;;;;;;4998569;28;20149;-64
2023/07/17 03:51:09;;;;;;;66.43;42.58;;;;;;;;;;4990567;28;20049;-62
2023/07/17 03:53:36;;;;;;;69.63;43.88;;;;;;;;;;5001648;28;20127;-62
2023/07/17 03:56:02;;;;;;;72.05;45.28;;;;;;;;;;5001270;28;20410;-61
2023/07/17 03:58:29;;;;;;;67.72;43.28;;;;;;;;;;4998023;28;20041;-63
2023/07/17 04:00:56;;;;;;;70.22;43.55;;;;;;;;;;4999413;28;20859;-62
2023/07/17 04:03:22;;;;;;;75.32;46.17;;;;;;;;;;5001132;28;20038;-62
2023/07/17 04:05:49;;;;;;;72.85;44.28;;;;;;;;;;5000927;28;20498;-63
2023/07/17 04:08:16;;;;;;;73.90;44.22;;;;;;;;;;4998609;28;20042;-62
2023/07/17 04:10:42;;;;;;;69.10;44.58;;;;;;;;;;5001380;28;20532;-63
2023/07/17 04:13:09;;;;;;;73.18;46.50;;;;;;;;;;5000055;28;20053;-64
2023/07/17 04:15:36;;;;;;;78.50;46.97;;;;;;;;;;4985387;28;20060;-62
2023/07/17 04:18:03;;;;;;;73.15;45.70;;;;;;;;;;4999242;28;20052;-64
2023/07/17 04:20:29;;;;;;;77.10;46.40;;;;;;;;;;4999860;28;20110;-62
2023/07/17 04:22:56;;;;;;;77.68;48.95;;;;;;;;;;5008225;28;20051;-61
2023/07/17 04:25:22;;;;;;;77.75;47.60;;;;;;;;;;5022670;28;20513;-62
2023/07/17 04:27:49;;;;;;;79.35;48.53;;;;;;;;;;5019112;28;20406;-63
2023/07/17 04:30:16;;;;;;;78.85;49.67;;;;;;;;;;5031196;28;20157;-62
2023/07/17 04:32:42;;;;;;;81.53;47.92;;;;;;;;;;5041747;28;20247;-62
2023/07/17 04:35:09;;;;;;;77.05;48.20;;;;;;;;;;5023947;28;20036;-62
2023/07/17 04:37:36;;;;;;;80.68;50.20;;;;;;;;;;5042162;28;20029;-63
2023/07/17 04:40:05;;;;;;;81.72;48.03;;;;;;;;;;5042696;28;20037;-64
2023/07/17 04:42:31;;;;;;;82.47;51.60;;;;;;;;;;5041207;28;20040;-62
2023/07/17 04:44:58;;;;;;;83.07;51.00;;;;;;;;;;5039864;28;20029;-63
2023/07/17 04:47:25;;;;;;;89.97;52.42;;;;;;;;;;5030366;28;20580;-62
2023/07/17 04:49:55;;;;;;;86.82;55.13;;;;;;;;;;5030528;28;20531;-62
2023/07/17 04:52:22;;;;;;;94.38;56.65;;;;;;;;;;5041774;28;20179;-63
2023/07/17 04:54:48;;;;;;;95.53;55.80;;;;;;;;;;5039533;28;20044;-61
2023/07/17 04:57:15;;;;;;;95.82;58.72;;;;;;;;;;5042015;28;20041;-61
2023/07/17 04:59:43;;;;;;;98.35;59.67;;;;;;;;;;5039759;28;20040;-63
2023/07/17 05:02:10;;;;;;;96.15;60.60;;;;;;;;;;5019733;28;20135;-62
2023/07/17 05:04:37;;;;;;;96.78;60.50;;;;;;;;;;5024329;28;20061;-63
2023/07/17 05:07:05;;;;;;;105.47;61.17;;;;;;;;;;5026135;28;20051;-63
2023/07/17 05:09:32;;;;;;;110.78;65.82;;;;;;;;;;5034144;28;20068;-62
2023/07/17 05:11:59;;;;;;;111.30;64.90;;;;;;;;;;5022986;28;20064;-62
2023/07/17 05:14:25;;;;;;;105.85;65.80;;;;;;;;;;5020563;28;21034;-62
2023/07/17 05:16:52;;;;;;;106.95;66.10;;;;;;;;;;5022754;28;20110;-64
2023/07/17 05:19:19;;;;;;;113.18;69.93;;;;;;;;;;5018388;28;20127;-62
2023/07/17 05:21:45;;;;;;;114.00;69.85;;;;;;;;;;5021154;28;20474;-62
2023/07/17 05:24:12;;;;;;;114.30;71.15;;;;;;;;;;5024221;28;20079;-65
2023/07/17 05:26:38;;;;;;;121.53;71.20;;;;;;;;;;5019397;28;20033;-61
2023/07/17 05:29:25;;;;;;;120.03;70.68;;;;;;;;;;5022989;28;20043;-62
2023/07/17 05:31:51;;;;;;;112.95;71.85;;;;;;;;;;5024937;28;21236;-60
2023/07/17 05:34:18;;;;;;;123.15;72.85;;;;;;;;;;5009324;28;20787;-62
2023/07/17 05:36:45;;;;;;;123.70;74.00;;;;;;;;;;5027106;28;20037;-65
2023/07/17 05:39:11;;;;;;;114.82;70.95;;;;;;;;;;5008715;28;20048;-62
2023/07/17 05:41:38;;;;;;;119.93;73.25;;;;;;;;;;5008459;28;20192;-61
2023/07/17 05:44:04;;;;;;;122.38;74.85;;;;;;;;;;5026397;28;20869;-64
2023/07/17 05:46:31;;;;;;;124.72;74.40;;;;;;;;;;5025473;28;20045;-64
2023/07/17 05:48:57;;;;;;;124.32;74.40;;;;;;;;;;5005652;28;20033;-62
2023/07/17 05:51:24;;;;;;;127.85;74.13;;;;;;;;;;5026291;28;20032;-62
2023/07/17 05:53:51;;;;;;;129.70;75.45;;;;;;;;;;5022455;28;20057;-61
2023/07/17 05:56:17;;;;;;;132.88;75.85;;;;;;;;;;5024569;28;20048;-62
2023/07/17 05:58:44;;;;;;;123.82;73.53;;;;;;;;;;5015214;28;20612;-64
2023/07/17 06:01:11;;;;;;;128.35;77.18;;;;;;;;;;5023455;28;20136;-66
2023/07/17 06:03:37;;;;;;;127.30;78.28;;;;;;;;;;5024725;28;20033;-64
2023/07/17 06:06:04;;;;;;;122.65;75.45;;;;;;;;;;5029157;28;20120;-64
2023/07/17 06:08:31;;;;;;;130.73;76.47;;;;;;;;;;5026075;28;20045;-63
2023/07/17 06:10:57;;;;;;;125.95;75.57;;;;;;;;;;5021637;28;20041;-64
2023/07/17 06:13:25;;;;;;;128.27;76.57;;;;;;;;;;5024338;28;20045;-70
2023/07/17 06:15:51;;;;;;;134.00;75.68;;;;;;;;;;5031725;28;20047;-61
2023/07/17 06:18:18;;;;;;;128.80;75.40;;;;;;;;;;5020136;28;20042;-61
2023/07/17 06:20:45;;;;;;;129.30;76.47;;;;;;;;;;5026565;28;20094;-62
2023/07/17 06:23:11;;;;;;;126.55;75.68;;;;;;;;;;5025172;28;20053;-61
2023/07/17 06:25:38;;;;;;;122.18;75.45;;;;;;;;;;5028181;28;20037;-60
2023/07/17 06:28:05;;;;;;;128.30;75.47;;;;;;;;;;5021087;28;20037;-61
2023/07/17 06:30:32;;;;;;;125.75;72.85;;;;;;;;;;5026725;28;20072;-61
2023/07/17 06:32:59;;;;;;;125.20;74.35;;;;;;;;;;5027173;28;20102;-60
2023/07/17 06:35:26;;;;;;;119.13;72.72;;;;;;;;;;5027149;28;20060;-64
2023/07/17 06:37:52;;;;;;;127.10;73.18;;;;;;;;;;5025660;28;20041;-62
2023/07/17 06:40:19;;;;;;;119.03;74.03;;;;;;;;;;5039614;28;20111;-63
2023/07/17 06:42:45;;;;;;;126.40;73.70;;;;;;;;;;5027655;28;20134;-65
2023/07/17 06:45:12;;;;;;;120.80;73.00;;;;;;;;;;5025824;28;20049;-61
2023/07/17 06:47:39;;;;;;;123.00;72.40;;;;;;;;;;5023060;28;20040;-62
2023/07/17 06:50:06;;;;;;;119.13;71.30;;;;;;;;;;5028915;28;20167;-63
2023/07/17 06:52:32;;;;;;;120.95;72.32;;;;;;;;;;5028983;28;20047;-63
2023/07/17 06:54:59;;;;;;;120.65;72.63;;;;;;;;;;5023530;28;20119;-63
2023/07/17 06:57:26;;;;;;;121.85;72.03;;;;;;;;;;5025817;28;20154;-62
2023/07/17 06:59:52;;;;;;;126.28;71.95;;;;;;;;;;5027531;28;20631;-63
2023/07/17 07:02:20;;;;;;;119.07;72.05;;;;;;;;;;5042107;28;20049;-63
2023/07/17 07:04:47;;;;;;;116.07;69.25;;;;;;;;;;5052500;28;20088;-63
2023/07/17 07:07:13;;;;;;;114.82;68.38;;;;;;;;;;5034959;28;20067;-62
2023/07/17 07:09:40;;;;;;;118.88;70.20;;;;;;;;;;5060127;28;20101;-62
2023/07/17 07:12:07;;;;;;;126.85;71.38;;;;;;;;;;5060113;28;20036;-62
2023/07/17 07:14:33;;;;;;;120.07;71.35;;;;;;;;;;5062066;28;20052;-61
2023/07/17 07:17:00;;;;;;;122.95;71.35;;;;;;;;;;5060603;28;20033;-62
2023/07/17 07:19:27;;;;;;;118.93;70.85;;;;;;;;;;5034617;28;20064;-63
2023/07/17 07:21:53;;;;;;;119.50;69.13;;;;;;;;;;5062101;28;20044;-61
2023/07/17 07:24:42;;;;;;;113.45;69.43;;;;;;;;;;5027981;28;20040;-61
2023/07/17 07:27:09;;;;;;;119.85;69.18;;;;;;;;;;5028498;28;20717;-63
2023/07/17 07:29:35;;;;;;;116.50;66.72;;;;;;;;;;5011654;28;20128;-61
2023/07/17 07:32:02;;;;;;;114.03;66.28;;;;;;;;;;5029027;28;20625;-61
2023/07/17 07:34:29;;;;;;;111.38;66.93;;;;;;;;;;5026958;28;20119;-62
2023/07/17 07:36:55;;;;;;;116.43;66.85;;;;;;;;;;5028842;28;20060;-63
2023/07/17 07:39:22;;;;;;;118.55;67.28;;;;;;;;;;5030558;28;20042;-61
2023/07/17 07:41:49;;;;;;;109.38;64.60;;;;;;;;;;5013504;28;20047;-62
2023/07/17 07:44:15;;;;;;;115.88;67.53;;;;;;;;;;5028891;28;20119;-63
2023/07/17 07:46:42;;;;;;;112.18;66.22;;;;;;;;;;5028556;28;20390;-63
2023/07/17 07:49:08;;;;;;;116.43;67.22;;;;;;;;;;5028337;28;20053;-63
2023/07/17 07:51:35;;;;;;;118.45;68.20;;;;;;;;;;5028650;28;20792;-65
2023/07/17 07:54:03;;;;;;;110.32;67.30;;;;;;;;;;5016181;28;20057;-63
2023/07/17 07:56:29;;;;;;;114.13;66.95;;;;;;;;;;5009587;28;20601;-61
2023/07/17 07:58:56;;;;;;;112.10;65.97;;;;;;;;;;5029208;28;20154;-62
2023/07/17 08:01:22;;;;;;;111.60;65.28;;;;;;;;;;5033374;28;20069;-60
2023/07/17 08:03:49;;;;;;;112.13;63.50;;;;;;;;;;5041117;28;20036;-60
2023/07/17 08:06:16;;;;;;;113.13;64.78;;;;;;;;;;5034586;28;20068;-63
2023/07/17 08:08:42;;;;;;;106.97;64.15;;;;;;;;;;5041664;28;20157;-62
2023/07/17 08:11:09;;;;;;;117.30;65.53;;;;;;;;;;5041809;28;20062;-62
2023/07/17 08:13:35;;;;;;;115.75;65.32;;;;;;;;;;5045367;28;20050;-63
2023/07/17 08:16:02;;;;;;;118.15;65.43;;;;;;;;;;5040500;28;20044;-60
2023/07/17 08:18:29;;;;;;;116.22;64.97;;;;;;;;;;5030068;28;20033;-60
2023/07/17 08:20:55;;;;;;;113.80;67.10;;;;;;;;;;5041207;28;20057;-63
2023/07/17 08:23:28;;;;;;;112.18;65.07;;;;;;;;;;5040255;28;20044;-61
2023/07/17 08:25:54;;;;;;;122.22;67.15;;;;;;;;;;5040268;28;20039;-59
2023/07/17 08:28:21;;;;;;;112.47;63.58;;;;;;;;;;5039750;28;20037;-62
2023/07/17 08:30:48;;;;;;;111.82;67.72;;;;;;;;;;5034918;28;20044;-60
2023/07/17 08:33:14;;;;;;;110.15;64.82;;;;;;;;;;5039729;28;20045;-62
2023/07/17 08:35:41;;;;;;;109.82;64.05;;;;;;;;;;5041672;28;20038;-62
2023/07/17 08:38:07;;;;;;;114.55;64.35;;;;;;;;;;5041096;28;20040;-62
2023/07/17 08:40:39;;;;;;;111.82;65.32;;;;;;;;;;5039988;28;20048;-62
2023/07/17 08:43:25;;;;;;;113.55;63.92;;;;;;;;;;5042174;28;20037;-63
2023/07/17 08:45:52;;;;;;;118.80;66.63;;;;;;;;;;4998842;28;20077;-63
2023/07/17 08:48:19;;;;;;;112.28;66.40;;;;;;;;;;5009429;28;20204;-62
2023/07/17 08:50:46;;;;;;;113.82;63.95;;;;;;;;;;5010281;28;20052;-62
2023/07/17 08:53:13;;;;;;;115.80;64.55;;;;;;;;;;5005059;28;20049;-60
2023/07/17 08:55:39;;;;;;;110.22;65.15;;;;;;;;;;5009673;28;20569;-62
2023/07/17 08:58:06;;;;;;;113.28;64.63;;;;;;;;;;5009533;28;20806;-62
2023/07/17 09:00:33;;;;;;;114.72;65.28;;;;;;;;;;5010796;28;20479;-66
2023/07/17 09:03:00;;;;;;;109.70;63.92;;;;;;;;;;5008618;28;20601;-61
2023/07/17 09:05:27;;;;;;;114.63;65.38;;;;;;;;;;5011799;28;20041;-61
2023/07/17 09:07:53;;;;;;;111.57;63.28;;;;;;;;;;5011078;28;20037;-62
2023/07/17 09:10:23;;;;;;;122.30;65.60;;;;;;;;;;5010775;28;20033;-60
2023/07/17 09:12:57;;;;;;;109.72;62.58;;;;;;;;;;5010461;28;20049;-62
2023/07/17 09:15:29;;;;;;;109.82;63.10;;;;;;;;;;4999400;28;20042;-60
2023/07/17 09:17:56;;;;;;;103.85;59.53;;;;;;;;;;5038299;28;20047;-60
2023/07/17 09:20:23;;;;;;;106.28;61.58;;;;;;;;;;5041036;28;20095;-62
2023/07/17 09:22:50;;;;;;;112.78;64.85;;;;;;;;;;5032782;28;20045;-60
2023/07/17 09:25:17;;;;;;;113.22;62.58;;;;;;;;;;5038998;28;20045;-63
2023/07/17 09:27:47;;;;;;;110.00;63.80;;;;;;;;;;5040171;28;20056;-62
2023/07/17 09:30:15;;;;;;;112.03;63.58;;;;;;;;;;5040013;28;20049;-64
2023/07/17 09:32:42;;;;;;;107.22;61.22;;;;;;;;;;5038062;28;20045;-61
2023/07/17 09:35:11;;;;;;;111.38;63.85;;;;;;;;;;5041634;28;20044;-63
2023/07/17 09:37:38;;;;;;;114.72;64.07;;;;;;;;;;5032879;28;20033;-61
2023/07/17 09:40:12;;;;;;;116.00;64.78;;;;;;;;;;5038781;28;20053;-61
2023/07/17 09:42:43;;;;;;;109.78;61.47;;;;;;;;;;5039659;28;20040;-65
2023/07/17 09:45:14;;;;;;;112.57;62.15;;;;;;;;;;5041943;28;20600;-61
2023/07/17 09:47:42;;;;;;;109.00;60.22;;;;;;;;;;5039005;28;21776;-60
2023/07/17 09:50:09;;;;;;;109.68;61.05;;;;;;;;;;5039040;28;20404;-60
2023/07/17 09:52:36;;;;;;;109.93;61.33;;;;;;;;;;5037531;28;20047;-61
2023/07/17 09:55:02;;;;;;;105.30;61.13;;;;;;;;;;5039184;28;20544;-62
2023/07/17 09:57:30;;;;;;;99.13;58.63;;;;;;;;;;5040750;28;20056;-63
2023/07/17 09:59:58;;;;;;;117.05;62.53;;;;;;;;;;5042765;28;20760;-61
2023/07/17 10:02:28;;;;;;;109.80;61.17;;;;;;;;;;5060140;28;20040;-60
2023/07/17 10:04:58;;;;;;;112.22;61.38;;;;;;;;;;5062211;28;20387;-64
2023/07/17 10:07:24;;;;;;;109.60;62.03;;;;;;;;;;5061688;28;20110;-63
2023/07/17 10:09:51;;;;;;;113.47;62.85;;;;;;;;;;5064894;28;20035;-61
2023/07/17 10:12:18;;;;;;;111.40;61.38;;;;;;;;;;5062908;28;20056;-61
2023/07/17 10:14:46;;;;;;;108.72;63.28;;;;;;;;;;5037823;28;20059;-64
2023/07/17 10:17:31;;;;;;;107.82;61.35;;;;;;;;;;5063167;28;20048;-63
2023/07/17 10:19:58;;;;;;;120.25;61.85;;;;;;;;;;5061993;28;20147;-61
2023/07/17 10:22:45;;;;;;;109.78;60.22;;;;;;;;;;5061786;28;20119;-61
2023/07/17 10:25:17;;;;;;;110.13;61.20;;;;;;;;;;5065601;28;20110;-62
2023/07/17 10:27:53;;;;;;;108.85;61.72;;;;;;;;;;5044012;28;20408;-60
2023/07/17 10:30:23;;;;;;;113.32;63.08;;;;;;;;;;5062703;28;20036;-61
2023/07/17 10:33:08;;;;;;;111.22;60.45;;;;;;;;;;5062146;28;20463;-61
2023/07/17 10:35:47;;;;;;;112.97;61.08;;;;;;;;;;5063617;28;20079;-62
2023/07/17 10:38:14;;;;;;;104.22;57.80;;;;;;;;;;5037823;28;20037;-64
2023/07/17 10:40:41;;;;;;;106.35;58.88;;;;;;;;;;5059967;28;20115;-65
2023/07/17 10:43:14;;;;;;;116.55;61.70;;;;;;;;;;5062489;28;20120;-62
2023/07/17 10:45:41;;;;;;;110.93;61.25;;;;;;;;;;5045774;28;20086;-65
2023/07/17 10:48:08;;;;;;;106.85;60.58;;;;;;;;;;5066269;28;20488;-61
2023/07/17 10:50:35;;;;;;;105.25;57.97;;;;;;;;;;5064124;28;20041;-62
2023/07/17 10:53:03;;;;;;;111.43;60.85;;;;;;;;;;5064500;28;20467;-61
2023/07/17 10:55:30;;;;;;;113.47;61.97;;;;;;;;;;5061728;28;20055;-62
2023/07/17 10:58:00;;;;;;;100.32;59.95;;;;;;;;;;5033392;28;20056;-61
2023/07/17 11:00:28;;;;;;;110.95;59.95;;;;;;;;;;5039186;28;20162;-61
2023/07/17 11:02:58;;;;;;;108.53;60.85;;;;;;;;;;5061712;28;20087;-61
2023/07/17 11:05:25;;;;;;;104.32;57.85;;;;;;;;;;5061113;28;20961;-61
2023/07/17 11:07:51;;;;;;;106.70;59.45;;;;;;;;;;5062580;28;20040;-61
2023/07/17 11:10:18;;;;;;;116.93;62.28;;;;;;;;;;5060693;28;20098;-62
2023/07/17 11:12:45;;;;;;;106.63;59.13;;;;;;;;;;5061137;28;20769;-61
2023/07/17 11:15:18;;;;;;;102.63;58.05;;;;;;;;;;5035775;28;20040;-62
2023/07/17 11:17:45;;;;;;;102.72;57.60;;;;;;;;;;5060997;28;20592;-60
2023/07/17 11:20:12;;;;;;;110.03;58.22;;;;;;;;;;5062443;28;20041;-63
2023/07/17 11:22:42;;;;;;;105.47;55.92;;;;;;;;;;5060628;28;20473;-60
2023/07/17 11:25:10;;;;;;;104.13;57.97;;;;;;;;;;5052128;28;20059;-63
2023/07/17 11:27:38;;;;;;;103.32;56.30;;;;;;;;;;5059767;28;20297;-63
2023/07/17 11:30:18;;;;;;;101.45;56.42;;;;;;;;;;5048530;28;20040;-60
2023/07/17 11:32:45;;;;;;;95.95;54.25;;;;;;;;;;5045162;28;20489;-65
2023/07/17 11:35:12;;;;;;;105.10;56.22;;;;;;;;;;5064157;28;20060;-63
2023/07/17 11:37:40;;;;;;;102.28;56.03;;;;;;;;;;5061024;28;20037;-62
2023/07/17 11:40:07;;;;;;;105.38;56.95;;;;;;;;;;5063908;28;20063;-62
2023/07/17 11:42:55;;;;;;;102.20;55.38;;;;;;;;;;5045479;28;20036;-64
2023/07/17 11:45:28;;;;;;;95.13;54.00;;;;;;;;;;5060075;28;20893;-63
2023/07/17 11:47:55;;;;;;;95.15;53.28;;;;;;;;;;5041103;28;20062;-64
2023/07/17 11:50:26;;;;;;;109.25;53.80;;;;;;;;;;5062666;28;20496;-63
2023/07/17 11:53:11;;;;;;;96.90;52.40;;;;;;;;;;5044857;28;20044;-63
2023/07/17 11:55:39;;;;;;;101.97;52.95;;;;;;;;;;5059403;28;20047;-63
2023/07/17 11:58:18;;;;;;;101.10;53.88;;;;;;;;;;5058898;28;20070;-63
2023/07/17 12:00:46;;;;;;;102.38;54.53;;;;;;;;;;5056183;28;20036;-65
2023/07/17 12:03:12;;;;;;;102.88;54.08;;;;;;;;;;5044954;28;20106;-67
2023/07/17 12:05:39;;;;;;;94.38;52.85;;;;;;;;;;5053387;28;20044;-62
2023/07/17 12:08:07;;;;;;;100.10;55.28;;;;;;;;;;5059236;28;20068;-62
2023/07/17 12:10:34;;;;;;;102.32;54.33;;;;;;;;;;5062545;28;20574;-63
2023/07/17 12:13:01;;;;;;;101.22;54.08;;;;;;;;;;5063260;28;20046;-64
2023/07/17 12:15:28;;;;;;;101.63;56.13;;;;;;;;;;5058906;28;20051;-62
2023/07/17 12:17:54;;;;;;;95.53;53.83;;;;;;;;;;5058812;28;20139;-62
2023/07/17 12:20:24;;;;;;;102.40;53.97;;;;;;;;;;5045124;28;20056;-61
2023/07/17 12:22:54;;;;;;;98.65;53.03;;;;;;;;;;5058179;28;20514;-61
2023/07/17 12:25:42;;;;;;;94.72;51.53;;;;;;;;;;5062567;28;20047;-63
2023/07/17 12:28:09;;;;;;;95.07;52.60;;;;;;;;;;4981342;28;20398;-64
2023/07/17 12:30:36;;;;;;;105.75;55.03;;;;;;;;;;4991390;28;20046;-63
2023/07/17 12:33:02;;;;;;;96.50;53.65;;;;;;;;;;4993770;28;20053;-64
2023/07/17 12:35:29;;;;;;;101.55;55.47;;;;;;;;;;4994899;28;20034;-63
2023/07/17 12:37:55;;;;;;;110.05;56.42;;;;;;;;;;4994411;28;20077;-63
2023/07/17 12:40:22;;;;;;;108.20;57.28;;;;;;;;;;4994833;28;20911;-61
2023/07/17 12:42:49;;;;;;;106.55;57.35;;;;;;;;;;4992634;28;20029;-62
2023/07/17 12:45:15;;;;;;;104.85;57.05;;;;;;;;;;4995459;28;20057;-65
2023/07/17 12:47:42;;;;;;;102.68;57.42;;;;;;;;;;4993302;28;20038;-63
2023/07/17 12:50:09;;;;;;;120.75;59.10;;;;;;;;;;4995951;28;20050;-64
2023/07/17 12:52:35;;;;;;;119.03;59.78;;;;;;;;;;4986852;28;20048;-63
2023/07/17 12:55:02;;;;;;;113.57;59.22;;;;;;;;;;4995842;28;20038;-64
2023/07/17 12:57:29;;;;;;;114.13;60.50;;;;;;;;;;4992797;28;20033;-64
2023/07/17 12:59:56;;;;;;;104.10;58.85;;;;;;;;;;4971207;28;20038;-64
2023/07/17 13:02:24;;;;;;;117.30;60.92;;;;;;;;;;4989315;28;20088;-63
2023/07/17 13:04:51;;;;;;;110.25;60.35;;;;;;;;;;5002183;28;20595;-61
2023/07/17 13:07:17;;;;;;;116.15;58.85;;;;;;;;;;5041300;28;20057;-63
2023/07/17 13:09:44;;;;;;;116.53;60.92;;;;;;;;;;5041573;28;20366;-62
2023/07/17 13:12:10;;;;;;;113.32;62.72;;;;;;;;;;5041464;28;20048;-62
2023/07/17 13:14:38;;;;;;;114.20;60.85;;;;;;;;;;5040387;28;20076;-63
2023/07/17 13:17:05;;;;;;;112.97;62.75;;;;;;;;;;5040984;28;20036;-62
2023/07/17 13:19:32;;;;;;;114.32;60.83;;;;;;;;;;5038002;28;20520;-64
2023/07/17 13:21:58;;;;;;;109.68;62.47;;;;;;;;;;5031916;28;20083;-63
2023/07/17 13:24:25;;;;;;;109.25;61.72;;;;;;;;;;5033576;28;20032;-62
2023/07/17 13:26:52;;;;;;;118.70;63.28;;;;;;;;;;5040902;28;20071;-63
2023/07/17 13:29:18;;;;;;;110.80;63.05;;;;;;;;;;5041150;28;20037;-64
2023/07/17 13:31:45;;;;;;;114.72;64.22;;;;;;;;;;5035135;28;20043;-60
2023/07/17 13:34:12;;;;;;;114.78;65.63;;;;;;;;;;5045107;28;20059;-63
2023/07/17 13:36:38;;;;;;;118.43;65.60;;;;;;;;;;5043874;28;20103;-63
2023/07/17 13:39:05;;;;;;;113.50;64.88;;;;;;;;;;5042757;28;20128;-63
2023/07/17 13:41:42;;;;;;;126.65;67.65;;;;;;;;;;5034723;28;20123;-66
2023/07/17 13:44:09;;;;;;;115.75;67.50;;;;;;;;;;5043536;28;20048;-64
2023/07/17 13:46:36;;;;;;;111.93;65.80;;;;;;;;;;5043466;28;20037;-65
2023/07/17 13:49:03;;;;;;;120.68;66.75;;;;;;;;;;5046451;28;20111;-64
2023/07/17 13:51:30;;;;;;;122.75;69.65;;;;;;;;;;5042180;28;21777;-61
2023/07/17 13:53:57;;;;;;;126.22;70.75;;;;;;;;;;5043841;28;20591;-62
2023/07/17 13:56:23;;;;;;;121.70;71.05;;;;;;;;;;5043573;28;20125;-68
2023/07/17 13:58:51;;;;;;;123.10;70.25;;;;;;;;;;5043766;28;20916;-62
2023/07/17 14:01:18;;;;;;;120.13;69.47;;;;;;;;;;5044209;28;20057;-62
2023/07/17 14:03:44;;;;;;;121.65;69.40;;;;;;;;;;5042996;28;20807;-63
2023/07/17 14:06:11;;;;;;;126.68;71.50;;;;;;;;;;5044159;28;20045;-63
2023/07/17 14:08:38;;;;;;;128.68;73.55;;;;;;;;;;5042850;28;20122;-62
2023/07/17 14:11:04;;;;;;;129.30;74.30;;;;;;;;;;5041824;28;20048;-62
2023/07/17 14:13:31;;;;;;;125.32;73.72;;;;;;;;;;5043053;28;20407;-62